sensor_id;sensor_type;location;lat;lon;timestamp;P1;durP1;ratioP1;P2;durP2;ratioP2
19705;SDS011;10003;52.506;4.700;2024-03-02T00:00:53;2.50;;;2.17;;
19705;SDS011;10003;52.506;4.700;2024-03-02T00:03:22;2.60;;;2.27;;
19705;SDS011;10003;52.506;4.700;2024-03-02T00:05:51;2.70;;;2.23;;
19705;SDS011;10003;52.506;4.700;2024-03-02T00:08:22;2.30;;;2.10;;
19705;SDS011;10003;52.506;4.700;2024-03-02T00:10:57;3.30;;;2.30;;
19705;SDS011;10003;52.506;4.700;2024-03-02T00:13:26;2.23;;;1.87;;
19705;SDS011;10003;52.506;4.700;2024-03-02T00:15:57;2.77;;;1.60;;
19705;SDS011;10003;52.506;4.700;2024-03-02T00:18:27;2.07;;;1.60;;
19705;SDS011;10003;52.506;4.700;2024-03-02T00:20:55;0.90;;;0.90;;
19705;SDS011;10003;52.506;4.700;2024-03-02T00:23:24;1.93;;;1.30;;
19705;SDS011;10003;52.506;4.700;2024-03-02T00:25:55;1.30;;;1.20;;
19705;SDS011;10003;52.506;4.700;2024-03-02T00:28:25;1.83;;;1.73;;
19705;SDS011;10003;52.506;4.700;2024-03-02T00:30:56;2.20;;;1.33;;
19705;SDS011;10003;52.506;4.700;2024-03-02T00:33:27;2.80;;;1.27;;
19705;SDS011;10003;52.506;4.700;2024-03-02T00:35:56;2.00;;;1.40;;
19705;SDS011;10003;52.506;4.700;2024-03-02T00:38:26;2.00;;;1.40;;
19705;SDS011;10003;52.506;4.700;2024-03-02T00:40:55;1.17;;;1.07;;
19705;SDS011;10003;52.506;4.700;2024-03-02T00:43:43;1.40;;;1.30;;
19705;SDS011;10003;52.506;4.700;2024-03-02T00:46:16;1.57;;;1.47;;
19705;SDS011;10003;52.506;4.700;2024-03-02T00:48:50;1.03;;;1.03;;
19705;SDS011;10003;52.506;4.700;2024-03-02T00:51:21;1.30;;;1.30;;
19705;SDS011;10003;52.506;4.700;2024-03-02T00:53:50;1.50;;;1.40;;
19705;SDS011;10003;52.506;4.700;2024-03-02T00:56:19;0.80;;;0.80;;
19705;SDS011;10003;52.506;4.700;2024-03-02T00:58:47;1.67;;;1.30;;
19705;SDS011;10003;52.506;4.700;2024-03-02T01:01:16;1.47;;;1.37;;
19705;SDS011;10003;52.506;4.700;2024-03-02T01:03:46;2.30;;;1.60;;
19705;SDS011;10003;52.506;4.700;2024-03-02T01:06:17;1.73;;;1.63;;
19705;SDS011;10003;52.506;4.700;2024-03-02T01:08:46;2.10;;;1.93;;
19705;SDS011;10003;52.506;4.700;2024-03-02T01:11:19;1.47;;;1.40;;
19705;SDS011;10003;52.506;4.700;2024-03-02T01:13:49;2.07;;;1.87;;
19705;SDS011;10003;52.506;4.700;2024-03-02T01:16:18;2.37;;;1.97;;
19705;SDS011;10003;52.506;4.700;2024-03-02T01:18:47;2.00;;;1.80;;
19705;SDS011;10003;52.506;4.700;2024-03-02T01:21:17;2.20;;;2.00;;
19705;SDS011;10003;52.506;4.700;2024-03-02T01:23:45;1.60;;;1.50;;
19705;SDS011;10003;52.506;4.700;2024-03-02T01:26:16;2.10;;;1.67;;
19705;SDS011;10003;52.506;4.700;2024-03-02T01:28:44;2.03;;;1.23;;
19705;SDS011;10003;52.506;4.700;2024-03-02T01:31:15;1.90;;;1.70;;
19705;SDS011;10003;52.506;4.700;2024-03-02T01:33:44;1.60;;;1.50;;
19705;SDS011;10003;52.506;4.700;2024-03-02T01:36:16;1.50;;;1.40;;
19705;SDS011;10003;52.506;4.700;2024-03-02T01:38:45;1.47;;;1.37;;
19705;SDS011;10003;52.506;4.700;2024-03-02T01:41:13;3.00;;;1.50;;
19705;SDS011;10003;52.506;4.700;2024-03-02T01:43:42;1.83;;;1.73;;
19705;SDS011;10003;52.506;4.700;2024-03-02T01:46:10;1.43;;;1.37;;
19705;SDS011;10003;52.506;4.700;2024-03-02T01:48:39;1.77;;;1.20;;
19705;SDS011;10003;52.506;4.700;2024-03-02T01:51:10;1.60;;;1.50;;
19705;SDS011;10003;52.506;4.700;2024-03-02T01:53:40;2.03;;;1.20;;
19705;SDS011;10003;52.506;4.700;2024-03-02T01:56:09;1.60;;;1.50;;
19705;SDS011;10003;52.506;4.700;2024-03-02T01:58:37;0.97;;;0.97;;
19705;SDS011;10003;52.506;4.700;2024-03-02T02:01:06;1.20;;;1.20;;
19705;SDS011;10003;52.506;4.700;2024-03-02T02:03:36;1.37;;;1.27;;
19705;SDS011;10003;52.506;4.700;2024-03-02T02:06:05;1.50;;;1.40;;
19705;SDS011;10003;52.506;4.700;2024-03-02T02:08:34;1.47;;;1.37;;
19705;SDS011;10003;52.506;4.700;2024-03-02T02:11:04;1.43;;;1.37;;
19705;SDS011;10003;52.506;4.700;2024-03-02T02:13:32;1.90;;;1.70;;
19705;SDS011;10003;52.506;4.700;2024-03-02T02:16:04;1.43;;;1.33;;
19705;SDS011;10003;52.506;4.700;2024-03-02T02:18:33;1.80;;;1.47;;
19705;SDS011;10003;52.506;4.700;2024-03-02T02:21:02;2.03;;;1.53;;
19705;SDS011;10003;52.506;4.700;2024-03-02T02:23:32;1.70;;;1.60;;
19705;SDS011;10003;52.506;4.700;2024-03-02T02:26:01;1.90;;;1.80;;
19705;SDS011;10003;52.506;4.700;2024-03-02T02:28:30;2.40;;;2.20;;
19705;SDS011;10003;52.506;4.700;2024-03-02T02:30:58;3.10;;;2.00;;
19705;SDS011;10003;52.506;4.700;2024-03-02T02:33:27;1.90;;;1.80;;
19705;SDS011;10003;52.506;4.700;2024-03-02T02:35:56;2.33;;;2.13;;
19705;SDS011;10003;52.506;4.700;2024-03-02T02:38:24;3.13;;;2.13;;
19705;SDS011;10003;52.506;4.700;2024-03-02T02:40:54;2.93;;;2.60;;
19705;SDS011;10003;52.506;4.700;2024-03-02T02:43:23;2.07;;;1.87;;
19705;SDS011;10003;52.506;4.700;2024-03-02T02:45:51;3.43;;;3.07;;
19705;SDS011;10003;52.506;4.700;2024-03-02T02:48:20;3.30;;;2.80;;
19705;SDS011;10003;52.506;4.700;2024-03-02T02:50:48;3.70;;;2.77;;
19705;SDS011;10003;52.506;4.700;2024-03-02T02:53:16;4.37;;;2.90;;
19705;SDS011;10003;52.506;4.700;2024-03-02T02:55:45;2.63;;;2.43;;
19705;SDS011;10003;52.506;4.700;2024-03-02T02:58:15;4.47;;;4.07;;
19705;SDS011;10003;52.506;4.700;2024-03-02T03:00:44;3.90;;;3.60;;
19705;SDS011;10003;52.506;4.700;2024-03-02T03:03:12;5.03;;;4.07;;
19705;SDS011;10003;52.506;4.700;2024-03-02T03:05:41;4.43;;;4.07;;
19705;SDS011;10003;52.506;4.700;2024-03-02T03:08:12;3.60;;;3.30;;
19705;SDS011;10003;52.506;4.700;2024-03-02T03:10:42;5.23;;;4.83;;
19705;SDS011;10003;52.506;4.700;2024-03-02T03:13:10;7.97;;;5.20;;
19705;SDS011;10003;52.506;4.700;2024-03-02T03:15:40;4.70;;;4.30;;
19705;SDS011;10003;52.506;4.700;2024-03-02T03:18:09;6.23;;;5.70;;
19705;SDS011;10003;52.506;4.700;2024-03-02T03:20:38;4.93;;;4.53;;
19705;SDS011;10003;52.506;4.700;2024-03-02T03:23:06;5.57;;;5.07;;
19705;SDS011;10003;52.506;4.700;2024-03-02T03:25:35;6.17;;;5.57;;
19705;SDS011;10003;52.506;4.700;2024-03-02T03:28:03;4.40;;;4.00;;
19705;SDS011;10003;52.506;4.700;2024-03-02T03:30:32;3.80;;;3.50;;
19705;SDS011;10003;52.506;4.700;2024-03-02T03:33:02;7.73;;;2.93;;
19705;SDS011;10003;52.506;4.700;2024-03-02T03:35:33;3.43;;;3.17;;
19705;SDS011;10003;52.506;4.700;2024-03-02T03:38:02;3.50;;;3.20;;
19705;SDS011;10003;52.506;4.700;2024-03-02T03:40:30;3.03;;;2.83;;
19705;SDS011;10003;52.506;4.700;2024-03-02T03:42:59;2.90;;;2.43;;
19705;SDS011;10003;52.506;4.700;2024-03-02T03:45:27;2.97;;;2.60;;
19705;SDS011;10003;52.506;4.700;2024-03-02T03:47:57;2.90;;;2.60;;
19705;SDS011;10003;52.506;4.700;2024-03-02T03:50:27;3.33;;;2.77;;
19705;SDS011;10003;52.506;4.700;2024-03-02T03:52:55;2.90;;;2.70;;
19705;SDS011;10003;52.506;4.700;2024-03-02T03:55:24;3.00;;;2.80;;
19705;SDS011;10003;52.506;4.700;2024-03-02T03:57:52;3.83;;;2.80;;
19705;SDS011;10003;52.506;4.700;2024-03-02T04:00:21;3.03;;;2.73;;
19705;SDS011;10003;52.506;4.700;2024-03-02T04:02:49;3.30;;;3.00;;
19705;SDS011;10003;52.506;4.700;2024-03-02T04:05:18;4.10;;;3.23;;
19705;SDS011;10003;52.506;4.700;2024-03-02T04:07:48;3.50;;;3.20;;
19705;SDS011;10003;52.506;4.700;2024-03-02T04:10:16;2.63;;;2.43;;
19705;SDS011;10003;52.506;4.700;2024-03-02T04:12:47;3.73;;;3.03;;
19705;SDS011;10003;52.506;4.700;2024-03-02T04:15:18;2.77;;;2.53;;
19705;SDS011;10003;52.506;4.700;2024-03-02T04:17:46;4.70;;;3.37;;
19705;SDS011;10003;52.506;4.700;2024-03-02T04:20:15;3.83;;;3.47;;
19705;SDS011;10003;52.506;4.700;2024-03-02T04:22:43;5.67;;;3.27;;
19705;SDS011;10003;52.506;4.700;2024-03-02T04:25:13;3.90;;;3.60;;
19705;SDS011;10003;52.506;4.700;2024-03-02T04:27:42;4.17;;;3.73;;
19705;SDS011;10003;52.506;4.700;2024-03-02T04:30:11;4.53;;;3.90;;
19705;SDS011;10003;52.506;4.700;2024-03-02T04:32:40;2.80;;;2.30;;
19705;SDS011;10003;52.506;4.700;2024-03-02T04:35:12;3.80;;;2.93;;
19705;SDS011;10003;52.506;4.700;2024-03-02T04:37:41;3.73;;;3.43;;
19705;SDS011;10003;52.506;4.700;2024-03-02T04:40:10;2.87;;;2.60;;
19705;SDS011;10003;52.506;4.700;2024-03-02T04:42:40;3.00;;;2.53;;
19705;SDS011;10003;52.506;4.700;2024-03-02T04:45:09;3.50;;;3.20;;
19705;SDS011;10003;52.506;4.700;2024-03-02T04:47:38;3.53;;;3.03;;
19705;SDS011;10003;52.506;4.700;2024-03-02T04:50:07;3.33;;;3.03;;
19705;SDS011;10003;52.506;4.700;2024-03-02T04:52:36;3.40;;;3.10;;
19705;SDS011;10003;52.506;4.700;2024-03-02T04:55:05;5.87;;;3.13;;
19705;SDS011;10003;52.506;4.700;2024-03-02T04:57:47;3.33;;;3.00;;
19705;SDS011;10003;52.506;4.700;2024-03-02T05:00:17;3.30;;;3.00;;
19705;SDS011;10003;52.506;4.700;2024-03-02T05:02:46;3.47;;;3.00;;
19705;SDS011;10003;52.506;4.700;2024-03-02T05:05:14;3.83;;;2.80;;
19705;SDS011;10003;52.506;4.700;2024-03-02T05:07:43;2.40;;;2.20;;
19705;SDS011;10003;52.506;4.700;2024-03-02T05:10:11;2.60;;;2.40;;
19705;SDS011;10003;52.506;4.700;2024-03-02T05:12:40;2.30;;;2.13;;
19705;SDS011;10003;52.506;4.700;2024-03-02T05:15:25;3.00;;;2.80;;
19705;SDS011;10003;52.506;4.700;2024-03-02T05:17:54;2.27;;;2.10;;
19705;SDS011;10003;52.506;4.700;2024-03-02T05:20:23;2.30;;;2.10;;
19705;SDS011;10003;52.506;4.700;2024-03-02T05:22:52;2.33;;;2.13;;
19705;SDS011;10003;52.506;4.700;2024-03-02T05:25:20;2.30;;;1.83;;
19705;SDS011;10003;52.506;4.700;2024-03-02T05:27:49;1.93;;;1.77;;
19705;SDS011;10003;52.506;4.700;2024-03-02T05:30:18;2.93;;;2.40;;
19705;SDS011;10003;52.506;4.700;2024-03-02T05:32:47;2.00;;;1.80;;
19705;SDS011;10003;52.506;4.700;2024-03-02T05:35:17;1.90;;;1.77;;
19705;SDS011;10003;52.506;4.700;2024-03-02T05:37:46;2.77;;;2.00;;
19705;SDS011;10003;52.506;4.700;2024-03-02T05:40:15;2.20;;;1.80;;
19705;SDS011;10003;52.506;4.700;2024-03-02T05:42:45;1.37;;;1.30;;
19705;SDS011;10003;52.506;4.700;2024-03-02T05:45:14;3.47;;;2.57;;
19705;SDS011;10003;52.506;4.700;2024-03-02T05:47:43;2.20;;;1.90;;
19705;SDS011;10003;52.506;4.700;2024-03-02T05:50:13;1.77;;;1.67;;
19705;SDS011;10003;52.506;4.700;2024-03-02T05:52:42;2.33;;;2.13;;
19705;SDS011;10003;52.506;4.700;2024-03-02T05:55:10;2.87;;;2.10;;
19705;SDS011;10003;52.506;4.700;2024-03-02T05:57:39;2.50;;;2.30;;
19705;SDS011;10003;52.506;4.700;2024-03-02T06:00:22;2.00;;;1.83;;
19705;SDS011;10003;52.506;4.700;2024-03-02T06:02:50;3.60;;;2.00;;
19705;SDS011;10003;52.506;4.700;2024-03-02T06:05:20;1.20;;;1.20;;
19705;SDS011;10003;52.506;4.700;2024-03-02T06:07:49;2.27;;;2.07;;
19705;SDS011;10003;52.506;4.700;2024-03-02T06:10:17;2.10;;;2.00;;
19705;SDS011;10003;52.506;4.700;2024-03-02T06:12:47;0.70;;;0.70;;
19705;SDS011;10003;52.506;4.700;2024-03-02T06:15:15;2.40;;;1.60;;
19705;SDS011;10003;52.506;4.700;2024-03-02T06:17:45;1.53;;;1.43;;
19705;SDS011;10003;52.506;4.700;2024-03-02T06:20:14;2.20;;;1.67;;
19705;SDS011;10003;52.506;4.700;2024-03-02T06:22:44;2.70;;;1.90;;
19705;SDS011;10003;52.506;4.700;2024-03-02T06:25:12;3.07;;;2.03;;
19705;SDS011;10003;52.506;4.700;2024-03-02T06:27:41;2.40;;;1.67;;
19705;SDS011;10003;52.506;4.700;2024-03-02T06:30:13;1.60;;;1.50;;
19705;SDS011;10003;52.506;4.700;2024-03-02T06:32:41;2.33;;;2.13;;
19705;SDS011;10003;52.506;4.700;2024-03-02T06:35:10;2.20;;;2.00;;
19705;SDS011;10003;52.506;4.700;2024-03-02T06:37:39;3.60;;;1.87;;
19705;SDS011;10003;52.506;4.700;2024-03-02T06:40:09;3.00;;;1.80;;
19705;SDS011;10003;52.506;4.700;2024-03-02T06:42:37;1.73;;;1.63;;
19705;SDS011;10003;52.506;4.700;2024-03-02T06:45:06;1.87;;;1.70;;
19705;SDS011;10003;52.506;4.700;2024-03-02T06:47:36;3.73;;;1.63;;
19705;SDS011;10003;52.506;4.700;2024-03-02T06:50:04;2.83;;;1.40;;
19705;SDS011;10003;52.506;4.700;2024-03-02T06:52:33;1.87;;;1.77;;
19705;SDS011;10003;52.506;4.700;2024-03-02T06:55:02;1.70;;;1.60;;
19705;SDS011;10003;52.506;4.700;2024-03-02T06:57:33;1.57;;;1.47;;
19705;SDS011;10003;52.506;4.700;2024-03-02T07:00:01;1.80;;;1.70;;
19705;SDS011;10003;52.506;4.700;2024-03-02T07:02:32;1.80;;;1.63;;
19705;SDS011;10003;52.506;4.700;2024-03-02T07:05:01;1.87;;;1.73;;
19705;SDS011;10003;52.506;4.700;2024-03-02T07:07:32;2.07;;;1.60;;
19705;SDS011;10003;52.506;4.700;2024-03-02T07:10:01;2.00;;;1.80;;
19705;SDS011;10003;52.506;4.700;2024-03-02T07:12:29;1.43;;;1.33;;
19705;SDS011;10003;52.506;4.700;2024-03-02T07:14:59;2.07;;;1.83;;
19705;SDS011;10003;52.506;4.700;2024-03-02T07:17:46;1.60;;;1.50;;
19705;SDS011;10003;52.506;4.700;2024-03-02T07:20:14;2.50;;;1.67;;
19705;SDS011;10003;52.506;4.700;2024-03-02T07:22:43;1.80;;;1.70;;
19705;SDS011;10003;52.506;4.700;2024-03-02T07:25:12;1.60;;;1.50;;
19705;SDS011;10003;52.506;4.700;2024-03-02T07:27:43;2.03;;;1.83;;
19705;SDS011;10003;52.506;4.700;2024-03-02T07:30:14;2.93;;;2.10;;
19705;SDS011;10003;52.506;4.700;2024-03-02T07:32:43;1.70;;;1.60;;
19705;SDS011;10003;52.506;4.700;2024-03-02T07:35:13;2.60;;;1.23;;
19705;SDS011;10003;52.506;4.700;2024-03-02T07:37:41;2.10;;;1.70;;
19705;SDS011;10003;52.506;4.700;2024-03-02T07:40:10;3.57;;;1.87;;
19705;SDS011;10003;52.506;4.700;2024-03-02T07:42:39;2.10;;;1.57;;
19705;SDS011;10003;52.506;4.700;2024-03-02T07:45:08;1.33;;;1.20;;
19705;SDS011;10003;52.506;4.700;2024-03-02T07:47:38;1.87;;;1.77;;
19705;SDS011;10003;52.506;4.700;2024-03-02T07:50:07;2.33;;;1.77;;
19705;SDS011;10003;52.506;4.700;2024-03-02T07:52:35;3.47;;;1.87;;
19705;SDS011;10003;52.506;4.700;2024-03-02T07:55:04;3.17;;;1.87;;
19705;SDS011;10003;52.506;4.700;2024-03-02T07:57:33;1.70;;;1.60;;
19705;SDS011;10003;52.506;4.700;2024-03-02T08:00:01;1.80;;;1.63;;
19705;SDS011;10003;52.506;4.700;2024-03-02T08:02:30;2.17;;;1.97;;
19705;SDS011;10003;52.506;4.700;2024-03-02T08:05:00;3.80;;;1.80;;
19705;SDS011;10003;52.506;4.700;2024-03-02T08:07:29;3.53;;;1.33;;
19705;SDS011;10003;52.506;4.700;2024-03-02T08:09:57;4.53;;;2.00;;
19705;SDS011;10003;52.506;4.700;2024-03-02T08:12:26;3.03;;;1.73;;
19705;SDS011;10003;52.506;4.700;2024-03-02T08:14:54;4.03;;;2.00;;
19705;SDS011;10003;52.506;4.700;2024-03-02T08:17:23;3.63;;;1.57;;
19705;SDS011;10003;52.506;4.700;2024-03-02T08:19:52;4.67;;;1.80;;
19705;SDS011;10003;52.506;4.700;2024-03-02T08:22:22;3.33;;;1.77;;
19705;SDS011;10003;52.506;4.700;2024-03-02T08:24:54;3.90;;;1.73;;
19705;SDS011;10003;52.506;4.700;2024-03-02T08:27:23;2.20;;;1.70;;
19705;SDS011;10003;52.506;4.700;2024-03-02T08:29:52;2.70;;;1.57;;
19705;SDS011;10003;52.506;4.700;2024-03-02T08:32:20;3.13;;;2.17;;
19705;SDS011;10003;52.506;4.700;2024-03-02T08:34:49;4.23;;;1.80;;
19705;SDS011;10003;52.506;4.700;2024-03-02T08:37:17;3.87;;;2.30;;
19705;SDS011;10003;52.506;4.700;2024-03-02T08:39:47;2.00;;;1.80;;
19705;SDS011;10003;52.506;4.700;2024-03-02T08:42:17;2.47;;;1.70;;
19705;SDS011;10003;52.506;4.700;2024-03-02T08:44:46;3.10;;;2.20;;
19705;SDS011;10003;52.506;4.700;2024-03-02T08:47:14;3.77;;;2.63;;
19705;SDS011;10003;52.506;4.700;2024-03-02T08:49:43;4.17;;;2.60;;
19705;SDS011;10003;52.506;4.700;2024-03-02T08:52:11;4.67;;;2.23;;
19705;SDS011;10003;52.506;4.700;2024-03-02T08:54:40;4.50;;;2.97;;
19705;SDS011;10003;52.506;4.700;2024-03-02T08:57:12;4.00;;;2.30;;
19705;SDS011;10003;52.506;4.700;2024-03-02T08:59:40;7.80;;;2.17;;
19705;SDS011;10003;52.506;4.700;2024-03-02T09:02:10;5.77;;;2.30;;
19705;SDS011;10003;52.506;4.700;2024-03-02T09:04:39;4.27;;;1.63;;
19705;SDS011;10003;52.506;4.700;2024-03-02T09:07:07;4.93;;;2.30;;
19705;SDS011;10003;52.506;4.700;2024-03-02T09:09:35;8.30;;;2.97;;
19705;SDS011;10003;52.506;4.700;2024-03-02T09:12:05;2.60;;;1.73;;
19705;SDS011;10003;52.506;4.700;2024-03-02T09:14:35;5.30;;;2.10;;
19705;SDS011;10003;52.506;4.700;2024-03-02T09:17:07;5.13;;;2.20;;
19705;SDS011;10003;52.506;4.700;2024-03-02T09:19:40;2.93;;;2.20;;
19705;SDS011;10003;52.506;4.700;2024-03-02T09:22:08;2.97;;;1.90;;
19705;SDS011;10003;52.506;4.700;2024-03-02T09:24:37;7.00;;;2.87;;
19705;SDS011;10003;52.506;4.700;2024-03-02T09:27:05;3.43;;;1.97;;
19705;SDS011;10003;52.506;4.700;2024-03-02T09:29:35;5.27;;;1.93;;
19705;SDS011;10003;52.506;4.700;2024-03-02T09:32:04;3.73;;;2.30;;
19705;SDS011;10003;52.506;4.700;2024-03-02T09:34:33;4.57;;;2.07;;
19705;SDS011;10003;52.506;4.700;2024-03-02T09:37:01;4.30;;;2.47;;
19705;SDS011;10003;52.506;4.700;2024-03-02T09:39:30;5.10;;;2.83;;
19705;SDS011;10003;52.506;4.700;2024-03-02T09:41:59;6.20;;;1.90;;
19705;SDS011;10003;52.506;4.700;2024-03-02T09:44:28;5.27;;;2.10;;
19705;SDS011;10003;52.506;4.700;2024-03-02T09:46:57;5.90;;;2.53;;
19705;SDS011;10003;52.506;4.700;2024-03-02T09:49:26;5.47;;;2.67;;
19705;SDS011;10003;52.506;4.700;2024-03-02T09:52:00;4.97;;;2.13;;
19705;SDS011;10003;52.506;4.700;2024-03-02T09:54:29;4.03;;;2.60;;
19705;SDS011;10003;52.506;4.700;2024-03-02T09:56:58;3.17;;;2.07;;
19705;SDS011;10003;52.506;4.700;2024-03-02T09:59:28;5.30;;;2.13;;
19705;SDS011;10003;52.506;4.700;2024-03-02T10:01:58;5.73;;;2.30;;
19705;SDS011;10003;52.506;4.700;2024-03-02T10:04:28;3.77;;;2.10;;
19705;SDS011;10003;52.506;4.700;2024-03-02T10:07:10;4.87;;;2.17;;
19705;SDS011;10003;52.506;4.700;2024-03-02T10:09:38;3.00;;;1.83;;
19705;SDS011;10003;52.506;4.700;2024-03-02T10:12:07;4.70;;;2.30;;
19705;SDS011;10003;52.506;4.700;2024-03-02T10:14:38;4.50;;;2.37;;
19705;SDS011;10003;52.506;4.700;2024-03-02T10:17:09;3.17;;;2.50;;
19705;SDS011;10003;52.506;4.700;2024-03-02T10:19:38;3.30;;;1.70;;
19705;SDS011;10003;52.506;4.700;2024-03-02T10:22:07;5.47;;;2.70;;
19705;SDS011;10003;52.506;4.700;2024-03-02T10:24:38;6.80;;;2.17;;
19705;SDS011;10003;52.506;4.700;2024-03-02T10:27:08;4.33;;;2.30;;
19705;SDS011;10003;52.506;4.700;2024-03-02T10:29:40;5.30;;;2.80;;
19705;SDS011;10003;52.506;4.700;2024-03-02T10:32:10;3.77;;;2.03;;
19705;SDS011;10003;52.506;4.700;2024-03-02T10:34:39;4.00;;;1.60;;
19705;SDS011;10003;52.506;4.700;2024-03-02T10:37:08;5.77;;;3.03;;
19705;SDS011;10003;52.506;4.700;2024-03-02T10:39:37;5.53;;;2.00;;
19705;SDS011;10003;52.506;4.700;2024-03-02T10:42:07;4.47;;;2.33;;
19705;SDS011;10003;52.506;4.700;2024-03-02T10:44:36;4.77;;;2.17;;
19705;SDS011;10003;52.506;4.700;2024-03-02T10:47:05;5.70;;;2.50;;
19705;SDS011;10003;52.506;4.700;2024-03-02T10:49:34;2.13;;;1.30;;
19705;SDS011;10003;52.506;4.700;2024-03-02T10:52:03;5.83;;;2.27;;
19705;SDS011;10003;52.506;4.700;2024-03-02T10:54:32;3.13;;;1.57;;
19705;SDS011;10003;52.506;4.700;2024-03-02T10:57:07;3.60;;;1.73;;
19705;SDS011;10003;52.506;4.700;2024-03-02T10:59:37;2.83;;;1.73;;
19705;SDS011;10003;52.506;4.700;2024-03-02T11:02:09;5.10;;;1.93;;
19705;SDS011;10003;52.506;4.700;2024-03-02T11:04:43;3.50;;;2.30;;
19705;SDS011;10003;52.506;4.700;2024-03-02T11:07:12;5.63;;;2.80;;
19705;SDS011;10003;52.506;4.700;2024-03-02T11:09:42;4.87;;;2.30;;
19705;SDS011;10003;52.506;4.700;2024-03-02T11:12:19;4.63;;;1.90;;
19705;SDS011;10003;52.506;4.700;2024-03-02T11:14:48;2.63;;;1.83;;
19705;SDS011;10003;52.506;4.700;2024-03-02T11:17:18;4.23;;;1.73;;
19705;SDS011;10003;52.506;4.700;2024-03-02T11:19:48;5.10;;;2.53;;
19705;SDS011;10003;52.506;4.700;2024-03-02T11:22:17;5.50;;;2.00;;
19705;SDS011;10003;52.506;4.700;2024-03-02T11:24:50;2.70;;;1.90;;
19705;SDS011;10003;52.506;4.700;2024-03-02T11:30:03;2.90;;;2.07;;
19705;SDS011;10003;52.506;4.700;2024-03-02T11:32:34;5.10;;;2.60;;
19705;SDS011;10003;52.506;4.700;2024-03-02T11:35:04;1.30;;;1.30;;
19705;SDS011;10003;52.506;4.700;2024-03-02T11:37:34;4.10;;;2.23;;
19705;SDS011;10003;52.506;4.700;2024-03-02T11:40:03;4.47;;;2.50;;
19705;SDS011;10003;52.506;4.700;2024-03-02T11:42:32;5.83;;;2.20;;
19705;SDS011;10003;52.506;4.700;2024-03-02T11:45:00;7.90;;;1.70;;
19705;SDS011;10003;52.506;4.700;2024-03-02T11:47:31;4.17;;;1.70;;
19705;SDS011;10003;52.506;4.700;2024-03-02T11:50:06;2.80;;;1.60;;
19705;SDS011;10003;52.506;4.700;2024-03-02T11:52:35;2.90;;;1.80;;
19705;SDS011;10003;52.506;4.700;2024-03-02T11:55:04;2.37;;;1.53;;
19705;SDS011;10003;52.506;4.700;2024-03-02T11:57:34;3.80;;;1.77;;
19705;SDS011;10003;52.506;4.700;2024-03-02T12:00:03;3.67;;;2.20;;
19705;SDS011;10003;52.506;4.700;2024-03-02T12:02:32;6.07;;;2.27;;
19705;SDS011;10003;52.506;4.700;2024-03-02T12:05:02;1.63;;;1.20;;
19705;SDS011;10003;52.506;4.700;2024-03-02T12:07:33;2.83;;;1.63;;
19705;SDS011;10003;52.506;4.700;2024-03-02T12:10:03;3.13;;;1.90;;
19705;SDS011;10003;52.506;4.700;2024-03-02T12:12:32;3.43;;;2.07;;
19705;SDS011;10003;52.506;4.700;2024-03-02T12:15:00;1.50;;;1.03;;
19705;SDS011;10003;52.506;4.700;2024-03-02T12:17:29;5.00;;;1.57;;
19705;SDS011;10003;52.506;4.700;2024-03-02T12:19:58;4.63;;;1.90;;
19705;SDS011;10003;52.506;4.700;2024-03-02T12:22:30;3.43;;;1.63;;
19705;SDS011;10003;52.506;4.700;2024-03-02T12:25:02;1.33;;;1.00;;
19705;SDS011;10003;52.506;4.700;2024-03-02T12:27:31;3.20;;;1.50;;
19705;SDS011;10003;52.506;4.700;2024-03-02T12:30:00;2.43;;;1.60;;
19705;SDS011;10003;52.506;4.700;2024-03-02T12:32:29;1.27;;;1.17;;
19705;SDS011;10003;52.506;4.700;2024-03-02T12:34:57;3.30;;;1.77;;
19705;SDS011;10003;52.506;4.700;2024-03-02T12:37:26;3.20;;;1.97;;
19705;SDS011;10003;52.506;4.700;2024-03-02T12:39:55;3.93;;;1.30;;
19705;SDS011;10003;52.506;4.700;2024-03-02T12:42:25;3.03;;;1.23;;
19705;SDS011;10003;52.506;4.700;2024-03-02T12:44:53;2.97;;;1.70;;
19705;SDS011;10003;52.506;4.700;2024-03-02T12:47:22;3.17;;;1.60;;
19705;SDS011;10003;52.506;4.700;2024-03-02T12:49:51;2.47;;;1.47;;
19705;SDS011;10003;52.506;4.700;2024-03-02T12:52:20;4.50;;;1.80;;
19705;SDS011;10003;52.506;4.700;2024-03-02T12:54:49;3.97;;;1.90;;
19705;SDS011;10003;52.506;4.700;2024-03-02T12:57:19;1.30;;;1.20;;
19705;SDS011;10003;52.506;4.700;2024-03-02T12:59:49;1.80;;;1.50;;
19705;SDS011;10003;52.506;4.700;2024-03-02T13:02:18;1.50;;;1.00;;
19705;SDS011;10003;52.506;4.700;2024-03-02T13:04:51;3.43;;;1.43;;
19705;SDS011;10003;52.506;4.700;2024-03-02T13:07:20;3.50;;;1.90;;
19705;SDS011;10003;52.506;4.700;2024-03-02T13:09:49;1.10;;;1.03;;
19705;SDS011;10003;52.506;4.700;2024-03-02T13:12:19;1.27;;;1.17;;
19705;SDS011;10003;52.506;4.700;2024-03-02T13:14:49;1.47;;;0.80;;
19705;SDS011;10003;52.506;4.700;2024-03-02T13:17:18;2.30;;;1.60;;
19705;SDS011;10003;52.506;4.700;2024-03-02T13:19:53;2.73;;;1.90;;
19705;SDS011;10003;52.506;4.700;2024-03-02T13:22:21;2.63;;;1.90;;
19705;SDS011;10003;52.506;4.700;2024-03-02T13:24:50;2.63;;;1.30;;
19705;SDS011;10003;52.506;4.700;2024-03-02T13:27:20;2.40;;;1.77;;
19705;SDS011;10003;52.506;4.700;2024-03-02T13:29:51;1.77;;;1.40;;
19705;SDS011;10003;52.506;4.700;2024-03-02T13:32:20;0.90;;;0.90;;
19705;SDS011;10003;52.506;4.700;2024-03-02T13:34:50;1.83;;;1.50;;
19705;SDS011;10003;52.506;4.700;2024-03-02T13:37:22;1.60;;;1.50;;
19705;SDS011;10003;52.506;4.700;2024-03-02T13:39:52;2.90;;;1.47;;
19705;SDS011;10003;52.506;4.700;2024-03-02T13:42:23;3.20;;;1.30;;
19705;SDS011;10003;52.506;4.700;2024-03-02T13:44:53;3.67;;;1.07;;
19705;SDS011;10003;52.506;4.700;2024-03-02T13:47:23;1.27;;;0.77;;
19705;SDS011;10003;52.506;4.700;2024-03-02T13:49:52;7.17;;;1.73;;
19705;SDS011;10003;52.506;4.700;2024-03-02T13:52:20;1.47;;;1.30;;
19705;SDS011;10003;52.506;4.700;2024-03-02T13:54:49;0.77;;;0.77;;
19705;SDS011;10003;52.506;4.700;2024-03-02T13:57:18;2.33;;;1.50;;
19705;SDS011;10003;52.506;4.700;2024-03-02T13:59:51;7.60;;;1.67;;
19705;SDS011;10003;52.506;4.700;2024-03-02T14:02:22;1.53;;;1.43;;
19705;SDS011;10003;52.506;4.700;2024-03-02T14:04:50;2.33;;;1.10;;
19705;SDS011;10003;52.506;4.700;2024-03-02T14:07:19;1.27;;;1.00;;
19705;SDS011;10003;52.506;4.700;2024-03-02T14:09:48;3.27;;;1.23;;
19705;SDS011;10003;52.506;4.700;2024-03-02T14:12:16;0.53;;;0.53;;
19705;SDS011;10003;52.506;4.700;2024-03-02T14:14:46;0.60;;;0.60;;
19705;SDS011;10003;52.506;4.700;2024-03-02T14:17:17;3.47;;;1.30;;
19705;SDS011;10003;52.506;4.700;2024-03-02T14:19:47;1.10;;;0.70;;
19705;SDS011;10003;52.506;4.700;2024-03-02T14:22:15;2.70;;;1.10;;
19705;SDS011;10003;52.506;4.700;2024-03-02T14:24:44;2.00;;;1.80;;
19705;SDS011;10003;52.506;4.700;2024-03-02T14:27:14;1.10;;;1.07;;
19705;SDS011;10003;52.506;4.700;2024-03-02T14:30:02;1.20;;;1.20;;
19705;SDS011;10003;52.506;4.700;2024-03-02T14:32:31;1.03;;;1.03;;
19705;SDS011;10003;52.506;4.700;2024-03-02T14:35:01;0.83;;;0.83;;
19705;SDS011;10003;52.506;4.700;2024-03-02T14:37:32;0.93;;;0.93;;
19705;SDS011;10003;52.506;4.700;2024-03-02T14:40:00;0.60;;;0.60;;
19705;SDS011;10003;52.506;4.700;2024-03-02T14:42:32;1.40;;;1.30;;
19705;SDS011;10003;52.506;4.700;2024-03-02T14:45:00;4.30;;;1.43;;
19705;SDS011;10003;52.506;4.700;2024-03-02T14:47:31;1.43;;;1.33;;
19705;SDS011;10003;52.506;4.700;2024-03-02T14:50:03;1.20;;;1.13;;
19705;SDS011;10003;52.506;4.700;2024-03-02T14:52:32;4.87;;;1.20;;
19705;SDS011;10003;52.506;4.700;2024-03-02T14:55:01;3.50;;;1.27;;
19705;SDS011;10003;52.506;4.700;2024-03-02T14:57:30;1.23;;;1.13;;
19705;SDS011;10003;52.506;4.700;2024-03-02T14:59:59;4.83;;;1.13;;
19705;SDS011;10003;52.506;4.700;2024-03-02T15:02:28;2.50;;;1.43;;
19705;SDS011;10003;52.506;4.700;2024-03-02T15:04:57;1.97;;;1.13;;